createdAt,value
2022-10-03T00:02:35.258Z,19.90
2022-10-03T00:05:21.275Z,20.20
2022-10-03T00:08:00.289Z,20.40
2022-10-03T00:10:40.916Z,18.40
2022-10-03T00:13:18.044Z,18.10
2022-10-03T00:15:53.712Z,15.70
2022-10-03T00:18:33.836Z,14.90
2022-10-03T00:21:15.059Z,14.20
2022-10-03T00:23:49.937Z,15.60
2022-10-03T00:26:31.879Z,15.80
2022-10-03T00:29:24.734Z,16.30
2022-10-03T00:32:00.106Z,18.90
2022-10-03T00:34:38.046Z,18.90
2022-10-03T00:37:19.739Z,19.30
2022-10-03T00:40:04.194Z,19.10
2022-10-03T00:42:58.888Z,19.00
2022-10-03T00:46:06.570Z,19.40
2022-10-03T00:49:01.913Z,17.70
2022-10-03T00:51:47.392Z,17.10
2022-10-03T00:54:31.621Z,15.60
2022-10-03T00:57:13.692Z,15.80
2022-10-03T01:00:02.472Z,16.10
2022-10-03T01:02:41.093Z,16.10
2022-10-03T01:05:18.623Z,17.00
2022-10-03T01:08:22.048Z,18.40
2022-10-03T01:10:55.544Z,18.60
2022-10-03T01:13:34.705Z,19.30
2022-10-03T01:16:14.242Z,18.50
2022-10-03T01:18:54.528Z,16.40
2022-10-03T01:21:31.501Z,16.70
2022-10-03T01:24:37.137Z,16.70
2022-10-03T01:27:07.479Z,16.50
2022-10-03T01:30:09.730Z,18.00
2022-10-03T01:32:47.192Z,20.80
2022-10-03T01:35:27.101Z,20.90
2022-10-03T01:38:05.780Z,21.00
2022-10-03T01:40:38.795Z,20.60
2022-10-03T01:43:12.603Z,20.20
2022-10-03T01:45:59.176Z,19.00
2022-10-03T01:48:34.545Z,18.80
2022-10-03T01:51:10.890Z,17.80
2022-10-03T01:53:50.468Z,17.30
2022-10-03T01:56:27.429Z,17.50
2022-10-03T01:59:02.728Z,16.90
2022-10-03T02:01:40.812Z,18.60
2022-10-03T02:04:15.568Z,20.90
2022-10-03T02:06:53.157Z,22.20
2022-10-03T02:09:29.620Z,22.30
2022-10-03T02:12:16.875Z,22.30
2022-10-03T02:14:53.598Z,22.30
2022-10-03T02:17:30.456Z,22.90
2022-10-03T02:20:08.199Z,23.70
2022-10-03T02:22:45.163Z,24.10
2022-10-03T02:25:25.114Z,24.90
2022-10-03T02:28:23.379Z,22.80
2022-10-03T02:31:10.043Z,22.20
2022-10-03T02:33:52.397Z,21.60
2022-10-03T02:36:56.122Z,21.20
2022-10-03T02:40:11.271Z,19.90
2022-10-03T02:42:58.215Z,21.10
2022-10-03T02:45:46.786Z,18.10
2022-10-03T02:48:55.562Z,18.10
2022-10-03T02:51:51.079Z,17.30
2022-10-03T02:54:51.426Z,16.60
2022-10-03T02:57:47.976Z,15.30
2022-10-03T03:00:20.790Z,16.10
2022-10-03T03:03:08.537Z,15.80
2022-10-03T03:06:20.955Z,14.90
2022-10-03T03:09:21.801Z,13.70
2022-10-03T03:12:41.344Z,14.90
2022-10-03T03:15:44.341Z,13.50
2022-10-03T03:18:22.069Z,13.10
2022-10-03T03:21:10.777Z,13.40
2022-10-03T03:23:58.420Z,14.30
2022-10-03T03:26:56.534Z,14.40
2022-10-03T03:29:35.394Z,13.00
2022-10-03T03:32:11.848Z,13.30
2022-10-03T03:34:48.913Z,12.60
2022-10-03T03:37:22.369Z,12.40
2022-10-03T03:40:08.711Z,12.00
2022-10-03T03:42:59.741Z,13.20
2022-10-03T03:45:40.560Z,11.90
2022-10-03T03:48:22.574Z,11.90
2022-10-03T03:51:00.298Z,11.90
2022-10-03T03:53:46.984Z,11.40
2022-10-03T03:56:38.232Z,11.40
2022-10-03T03:59:19.141Z,11.80
2022-10-03T04:01:59.003Z,10.90
2022-10-03T04:04:41.763Z,10.70
2022-10-03T04:07:21.943Z,10.60
2022-10-03T04:10:05.097Z,10.40
2022-10-03T04:12:43.506Z,10.70
2022-10-03T04:15:31.181Z,11.10
2022-10-03T04:18:30.235Z,11.20
2022-10-03T04:21:21.091Z,10.70
2022-10-03T04:24:07.689Z,10.20
2022-10-03T04:26:46.338Z,10.20
2022-10-03T04:29:38.636Z,10.30
2022-10-03T04:32:21.344Z,10.60
2022-10-03T04:35:10.189Z,10.10
2022-10-03T04:37:46.606Z,10.40
2022-10-03T04:40:33.461Z,10.70
2022-10-03T04:43:10.091Z,11.60
2022-10-03T04:45:56.847Z,11.70
2022-10-03T04:48:34.060Z,10.20
2022-10-03T04:51:12.206Z,10.10
2022-10-03T04:53:53.573Z,10.60
2022-10-03T04:56:35.937Z,11.70
2022-10-03T04:59:12.744Z,10.70
2022-10-03T05:01:47.662Z,10.30
2022-10-03T05:04:25.528Z,10.20
2022-10-03T05:07:03.013Z,10.30
2022-10-03T05:09:39.452Z,10.90
2022-10-03T05:12:15.804Z,9.90
2022-10-03T05:14:56.905Z,9.60
2022-10-03T05:17:37.619Z,10.10
2022-10-03T05:20:22.911Z,9.60
2022-10-03T05:22:57.094Z,9.10
2022-10-03T05:25:39.359Z,8.80
2022-10-03T05:28:22.191Z,9.20
2022-10-03T05:30:57.523Z,8.80
2022-10-03T05:33:33.565Z,9.40
2022-10-03T05:36:14.835Z,10.80
2022-10-03T05:39:19.883Z,9.70
2022-10-03T05:42:11.163Z,9.10
2022-10-03T05:44:46.348Z,8.50
2022-10-03T05:47:39.804Z,10.30
2022-10-03T05:50:41.662Z,8.90
2022-10-03T05:53:25.819Z,9.60
2022-10-03T05:56:05.934Z,11.70
2022-10-03T05:58:54.098Z,11.00
2022-10-03T06:01:38.019Z,9.90
2022-10-03T06:04:33.131Z,8.60
2022-10-03T06:07:13.758Z,9.20
2022-10-03T06:10:10.286Z,9.90
2022-10-03T06:12:46.874Z,9.70
2022-10-03T06:15:33.634Z,8.60
2022-10-03T06:18:22.411Z,8.70
2022-10-03T06:21:16.343Z,7.80
2022-10-03T06:24:27.327Z,8.30
2022-10-03T06:27:18.311Z,8.10
2022-10-03T06:30:17.854Z,8.10
2022-10-03T06:33:24.530Z,8.40
2022-10-03T06:36:28.042Z,8.70
2022-10-03T06:39:47.271Z,9.40
2022-10-03T06:42:44.982Z,9.20
2022-10-03T06:45:59.744Z,9.00
2022-10-03T06:49:03.467Z,9.30
2022-10-03T06:52:08.062Z,8.60
2022-10-03T06:55:05.759Z,6.40
2022-10-03T06:57:52.393Z,8.70
2022-10-03T07:00:22.299Z,7.40
2022-10-03T07:03:42.335Z,7.80
2022-10-03T07:06:33.598Z,5.90
2022-10-03T07:09:42.673Z,6.10
2022-10-03T07:12:46.909Z,5.30
2022-10-03T07:16:04.746Z,5.30
2022-10-03T07:19:03.665Z,5.10
2022-10-03T07:21:59.817Z,5.30
2022-10-03T07:25:04.125Z,5.40
2022-10-03T07:27:50.962Z,6.30
2022-10-03T07:30:22.088Z,6.20
2022-10-03T07:33:24.604Z,4.80
2022-10-03T07:36:41.146Z,5.50
2022-10-03T07:39:42.397Z,5.20
2022-10-03T07:42:44.737Z,4.70
2022-10-03T07:45:40.915Z,5.10
2022-10-03T07:48:38.775Z,4.50
2022-10-03T07:51:15.468Z,4.40
2022-10-03T07:54:19.154Z,4.60
2022-10-03T07:57:15.960Z,3.70
2022-10-03T08:00:14.403Z,4.00
2022-10-03T08:03:22.447Z,5.20
2022-10-03T08:06:15.141Z,3.90
2022-10-03T08:09:27.076Z,4.30
2022-10-03T08:12:33.447Z,4.80
2022-10-03T08:15:12.795Z,5.80
2022-10-03T08:18:13.139Z,6.90
2022-10-03T08:20:50.262Z,8.00
2022-10-03T08:23:58.370Z,8.20
2022-10-03T08:26:38.951Z,7.20
2022-10-03T08:29:16.942Z,5.50
2022-10-03T08:32:36.935Z,5.40
2022-10-03T08:35:22.480Z,5.80
2022-10-03T08:38:33.471Z,5.70
2022-10-03T08:41:22.767Z,6.00
2022-10-03T08:44:21.195Z,7.10
2022-10-03T08:47:36.401Z,7.40
2022-10-03T08:50:40.876Z,8.40
2022-10-03T08:53:31.983Z,7.40
2022-10-03T08:56:07.177Z,6.20
2022-10-03T08:59:26.099Z,5.70
2022-10-03T09:02:25.300Z,5.40
2022-10-03T09:05:17.757Z,5.00
2022-10-03T09:08:26.373Z,5.60
2022-10-03T09:11:17.253Z,5.70
2022-10-03T09:14:23.063Z,8.20
2022-10-03T09:17:11.371Z,9.10
2022-10-03T09:20:13.923Z,8.30
2022-10-03T09:23:25.861Z,8.00
2022-10-03T09:26:20.135Z,6.90
2022-10-03T09:29:25.103Z,7.10
2022-10-03T09:32:28.811Z,7.10
2022-10-03T09:35:30.563Z,6.10
2022-10-03T09:38:22.545Z,6.40
2022-10-03T09:41:28.205Z,5.80
2022-10-03T09:44:15.439Z,6.00
2022-10-03T09:47:18.921Z,5.40
2022-10-03T09:50:36.353Z,5.10
2022-10-03T09:53:37.427Z,5.10
2022-10-03T09:56:33.481Z,4.60
2022-10-03T09:59:20.600Z,4.40
2022-10-03T10:01:54.401Z,4.40
2022-10-03T10:05:09.294Z,4.50
2022-10-03T10:08:14.314Z,4.90
2022-10-03T10:11:18.791Z,4.30
2022-10-03T10:14:16.997Z,4.90
2022-10-03T10:17:18.873Z,5.10
2022-10-03T10:20:04.032Z,5.10
2022-10-03T10:23:10.605Z,4.20
2022-10-03T10:26:10.231Z,5.50
2022-10-03T10:29:00.253Z,8.60
2022-10-03T10:32:09.722Z,5.70
2022-10-03T10:35:29.685Z,10.40
2022-10-03T10:38:25.399Z,4.70
2022-10-03T10:41:30.661Z,4.90
2022-10-03T10:44:40.049Z,3.80
2022-10-03T10:47:27.461Z,6.20
2022-10-03T10:50:28.119Z,4.10
2022-10-03T10:53:40.048Z,3.90
2022-10-03T10:57:11.529Z,4.20
2022-10-03T11:00:08.531Z,4.70
2022-10-03T11:03:18.093Z,5.60
2022-10-03T11:06:31.191Z,9.80
2022-10-03T11:09:31.150Z,4.20
2022-10-03T11:12:42.190Z,4.60
2022-10-03T11:15:48.972Z,6.10
2022-10-03T11:19:04.360Z,5.50
2022-10-03T11:22:27.397Z,6.60
2022-10-03T11:25:30.162Z,6.30
2022-10-03T11:28:40.314Z,6.00
2022-10-03T11:31:47.216Z,6.60
2022-10-03T11:35:08.726Z,5.90
2022-10-03T11:37:47.037Z,7.10
2022-10-03T11:40:27.672Z,6.40
2022-10-03T11:43:14.649Z,6.60
2022-10-03T11:45:49.169Z,5.90
2022-10-03T11:48:34.157Z,7.20
2022-10-03T11:51:07.113Z,4.90
2022-10-03T11:53:41.538Z,7.90
2022-10-03T11:56:43.708Z,5.80
2022-10-03T11:59:35.604Z,4.70
2022-10-03T12:02:15.466Z,5.00
2022-10-03T12:04:51.393Z,5.30
2022-10-03T12:07:49.821Z,4.50
2022-10-03T12:10:29.619Z,4.10
2022-10-03T12:13:01.912Z,4.90
2022-10-03T12:15:35.538Z,4.30
2022-10-03T12:18:09.520Z,5.80
2022-10-03T12:21:08.958Z,4.60
2022-10-03T12:24:00.269Z,5.20
2022-10-03T12:26:43.735Z,4.90
2022-10-03T12:29:17.983Z,6.60
2022-10-03T12:31:57.128Z,6.60
2022-10-03T12:34:35.319Z,5.60
2022-10-03T12:37:17.731Z,6.00
2022-10-03T12:39:51.255Z,6.00
2022-10-03T12:42:28.735Z,5.20
2022-10-03T12:45:01.473Z,4.50
2022-10-03T12:47:56.545Z,4.10
2022-10-03T12:50:42.619Z,4.40
2022-10-03T12:53:30.577Z,4.50
2022-10-03T12:56:13.458Z,6.30
2022-10-03T12:58:55.417Z,5.10
2022-10-03T13:01:39.117Z,4.70
2022-10-03T13:04:17.902Z,4.90
2022-10-03T13:07:04.657Z,4.60
2022-10-03T13:10:03.623Z,5.00
2022-10-03T13:12:49.625Z,6.30
2022-10-03T13:15:41.261Z,5.70
2022-10-03T13:18:18.712Z,5.20
2022-10-03T13:20:59.495Z,6.40
2022-10-03T13:23:35.261Z,5.50
2022-10-03T13:26:11.887Z,4.70
2022-10-03T13:29:04.164Z,5.00
2022-10-03T13:31:37.339Z,5.10
2022-10-03T13:34:18.363Z,4.90
2022-10-03T13:36:53.466Z,4.30
2022-10-03T13:39:25.405Z,4.30
2022-10-03T13:42:10.271Z,5.00
2022-10-03T13:44:40.554Z,5.60
2022-10-03T13:47:25.195Z,5.40
2022-10-03T13:49:56.668Z,6.10
2022-10-03T13:52:37.168Z,5.60
2022-10-03T13:55:28.558Z,5.00
2022-10-03T13:58:19.311Z,8.60
2022-10-03T14:01:06.836Z,8.80
2022-10-03T14:03:45.362Z,9.40
2022-10-03T14:06:26.043Z,6.90
2022-10-03T14:09:27.642Z,7.50
2022-10-03T14:12:03.321Z,7.60
2022-10-03T14:15:02.924Z,6.70
2022-10-03T14:17:39.513Z,10.90
2022-10-03T14:20:19.183Z,6.50
2022-10-03T14:22:57.517Z,8.70
2022-10-03T14:25:28.645Z,6.70
2022-10-03T14:28:03.983Z,7.20
2022-10-03T14:31:05.134Z,12.40
2022-10-03T14:33:40.968Z,8.80
2022-10-03T14:36:33.609Z,8.70
2022-10-03T14:39:12.956Z,8.10
2022-10-03T14:41:46.741Z,8.10
2022-10-03T14:44:19.199Z,8.20
2022-10-03T14:46:54.463Z,6.80
2022-10-03T14:52:27.472Z,5.90
2022-10-03T14:54:58.410Z,6.30
2022-10-03T14:57:39.626Z,5.70
2022-10-03T15:00:34.441Z,5.70
2022-10-03T15:03:21.545Z,6.50
2022-10-03T15:06:05.241Z,8.80
2022-10-03T15:08:39.711Z,5.60
2022-10-03T15:11:12.603Z,8.40
2022-10-03T15:13:44.930Z,7.90
2022-10-03T15:16:18.346Z,8.40
2022-10-03T15:18:53.235Z,8.80
2022-10-03T15:21:22.430Z,6.90
2022-10-03T15:23:57.312Z,6.00
2022-10-03T15:26:28.371Z,7.20
2022-10-03T15:29:05.662Z,7.00
2022-10-03T15:31:37.976Z,7.50
2022-10-03T15:34:20.221Z,5.40
2022-10-03T15:36:55.557Z,6.00
2022-10-03T15:39:29.709Z,8.40
2022-10-03T15:42:08.015Z,7.50
2022-10-03T15:44:39.066Z,7.20
2022-10-03T15:47:11.164Z,8.90
2022-10-03T15:49:44.813Z,7.40
2022-10-03T15:52:26.069Z,7.40
2022-10-03T15:55:14.329Z,7.30
2022-10-03T15:57:47.711Z,9.50
2022-10-03T16:00:26.870Z,10.30
2022-10-03T16:03:05.670Z,7.40
2022-10-03T16:05:36.977Z,8.80
2022-10-03T16:08:09.795Z,8.80
2022-10-03T16:10:41.282Z,9.00
2022-10-03T16:13:27.217Z,9.00
2022-10-03T16:16:11.208Z,9.40
2022-10-03T16:18:47.880Z,8.50
2022-10-03T16:21:24.622Z,8.80
2022-10-03T16:23:55.440Z,8.50
2022-10-03T16:26:29.348Z,8.80
2022-10-03T16:29:09.289Z,9.10
2022-10-03T16:31:43.441Z,9.40
2022-10-03T16:34:16.476Z,9.90
2022-10-03T16:36:46.629Z,10.00
2022-10-03T16:39:23.324Z,9.30
2022-10-03T16:41:54.690Z,8.60
2022-10-03T16:44:29.027Z,8.70
2022-10-03T16:47:03.352Z,8.00
2022-10-03T16:49:56.576Z,8.90
2022-10-03T16:52:31.880Z,9.40
2022-10-03T16:55:04.033Z,9.60
2022-10-03T16:57:45.596Z,10.00
2022-10-03T17:00:21.196Z,8.90
2022-10-03T17:02:50.519Z,10.80
2022-10-03T17:05:21.022Z,8.80
2022-10-03T17:07:54.338Z,9.10
2022-10-03T17:10:34.053Z,9.60
2022-10-03T17:13:09.574Z,12.90
2022-10-03T17:15:48.215Z,13.50
2022-10-03T17:18:25.665Z,10.90
2022-10-03T17:21:01.934Z,10.50
2022-10-03T17:23:37.138Z,11.70
2022-10-03T17:26:10.819Z,11.50
2022-10-03T17:28:44.569Z,12.80
2022-10-03T17:31:25.443Z,12.60
2022-10-03T17:34:00.508Z,13.20
2022-10-03T17:37:02.152Z,15.20
2022-10-03T17:39:40.852Z,17.30
2022-10-03T17:42:22.965Z,9.00
2022-10-03T17:44:59.060Z,10.40
2022-10-03T17:47:35.101Z,13.20
2022-10-03T17:50:12.460Z,13.20
2022-10-03T17:52:43.495Z,13.80
2022-10-03T17:55:18.721Z,12.80
2022-10-03T17:57:51.959Z,12.00
2022-10-03T18:00:22.652Z,9.00
2022-10-03T18:02:58.201Z,11.20
2022-10-03T18:05:29.799Z,9.40
2022-10-03T18:08:05.108Z,11.90
2022-10-03T18:10:38.075Z,11.20
2022-10-03T18:13:17.440Z,11.60
2022-10-03T18:16:14.256Z,10.90
2022-10-03T18:18:53.980Z,11.10
2022-10-03T18:21:58.142Z,10.10
2022-10-03T18:24:59.437Z,6.60
2022-10-03T18:27:45.561Z,8.00
2022-10-03T18:30:20.099Z,8.50
2022-10-03T18:32:50.141Z,7.80
2022-10-03T18:35:22.998Z,8.10
2022-10-03T18:37:57.956Z,9.60
2022-10-03T18:40:29.687Z,8.50
2022-10-03T18:43:00.318Z,8.40
2022-10-03T18:45:33.560Z,9.10
2022-10-03T18:48:10.009Z,9.60
2022-10-03T18:50:52.990Z,15.30
2022-10-03T18:53:29.358Z,13.40
2022-10-03T18:56:03.494Z,11.30
2022-10-03T18:58:35.576Z,9.80
2022-10-03T19:01:07.515Z,9.60
2022-10-03T19:03:38.430Z,10.20
2022-10-03T19:06:19.264Z,9.60
2022-10-03T19:08:53.485Z,11.50
2022-10-03T19:11:25.123Z,8.40
2022-10-03T19:13:58.733Z,9.30
2022-10-03T19:16:58.532Z,9.20
2022-10-03T19:19:32.683Z,9.10
2022-10-03T19:22:07.026Z,10.20
2022-10-03T19:24:57.318Z,12.50
2022-10-03T19:27:42.836Z,11.90
2022-10-03T19:30:19.435Z,10.40
2022-10-03T19:32:53.693Z,14.60
2022-10-03T19:35:25.070Z,9.50
2022-10-03T19:37:56.934Z,8.90
2022-10-03T19:40:36.225Z,9.90
2022-10-03T19:43:23.449Z,8.10
2022-10-03T19:45:57.867Z,7.10
2022-10-03T19:48:28.123Z,8.20
2022-10-03T19:51:09.807Z,10.00
2022-10-03T19:53:42.431Z,8.70
2022-10-03T19:56:14.958Z,9.30
2022-10-03T19:58:46.812Z,9.80
2022-10-03T20:01:16.046Z,9.50
2022-10-03T20:03:51.465Z,10.70
2022-10-03T20:06:25.420Z,11.80
2022-10-03T20:08:57.028Z,12.20
2022-10-03T20:11:41.317Z,13.60
2022-10-03T20:14:16.626Z,12.20
2022-10-03T20:16:47.630Z,13.40
2022-10-03T20:19:22.489Z,14.10
2022-10-03T20:21:55.900Z,15.00
2022-10-03T20:24:31.714Z,14.00
2022-10-03T20:27:11.715Z,11.60
2022-10-03T20:29:47.207Z,12.50
2022-10-03T20:32:18.848Z,12.40
2022-10-03T20:34:54.532Z,11.20
2022-10-03T20:37:54.106Z,11.40
2022-10-03T20:40:33.615Z,11.20
2022-10-03T20:43:21.733Z,11.00
2022-10-03T20:45:58.778Z,11.30
2022-10-03T20:48:30.709Z,11.40
2022-10-03T20:51:01.813Z,14.20
2022-10-03T20:53:32.635Z,14.90
2022-10-03T20:56:04.996Z,15.20
2022-10-03T20:58:35.874Z,14.70
2022-10-03T21:01:08.843Z,13.30
2022-10-03T21:03:42.309Z,11.40
2022-10-03T21:06:19.510Z,12.20
2022-10-03T21:08:50.433Z,11.10
2022-10-03T21:11:23.395Z,11.70
2022-10-03T21:13:56.086Z,11.40
2022-10-03T21:16:27.820Z,11.90
2022-10-03T21:18:59.226Z,11.80
2022-10-03T21:21:37.301Z,11.70
2022-10-03T21:24:15.585Z,13.40
2022-10-03T21:26:47.506Z,15.50
2022-10-03T21:29:28.105Z,12.90
2022-10-03T21:32:11.621Z,12.20
2022-10-03T21:34:47.657Z,12.30
2022-10-03T21:37:21.138Z,12.20
2022-10-03T21:39:59.680Z,11.30
2022-10-03T21:42:33.640Z,10.90
2022-10-03T21:45:11.531Z,10.80
2022-10-03T21:47:46.569Z,11.50
2022-10-03T21:50:20.305Z,12.50
2022-10-03T21:53:11.254Z,12.30
2022-10-03T21:55:59.342Z,10.80
2022-10-03T21:58:41.085Z,11.10
2022-10-03T22:01:16.788Z,11.20
2022-10-03T22:03:51.638Z,11.10
2022-10-03T22:06:24.452Z,10.40
2022-10-03T22:08:54.534Z,10.70
2022-10-03T22:11:34.853Z,10.40
2022-10-03T22:14:12.945Z,11.10
2022-10-03T22:16:47.761Z,10.20
2022-10-03T22:19:22.125Z,10.20
2022-10-03T22:22:02.770Z,10.90
2022-10-03T22:24:39.792Z,11.00
2022-10-03T22:27:12.686Z,11.10
2022-10-03T22:29:47.064Z,10.30
2022-10-03T22:32:20.980Z,9.40
2022-10-03T22:34:54.663Z,9.70
2022-10-03T22:37:25.484Z,9.30
2022-10-03T22:39:54.806Z,8.80
2022-10-03T22:42:23.960Z,9.30
2022-10-03T22:44:54.807Z,10.20
2022-10-03T22:47:26.672Z,10.20
2022-10-03T22:49:58.363Z,10.50
2022-10-03T22:52:28.754Z,10.40
2022-10-03T22:54:57.727Z,10.70
2022-10-03T22:57:30.902Z,9.90
2022-10-03T23:00:08.392Z,10.30
2022-10-03T23:02:41.006Z,10.80
2022-10-03T23:05:15.969Z,10.40
2022-10-03T23:08:01.902Z,10.10
2022-10-03T23:10:39.943Z,10.80
2022-10-03T23:13:14.482Z,10.00
2022-10-03T23:15:48.025Z,11.00
2022-10-03T23:18:38.812Z,11.00
2022-10-03T23:21:09.584Z,11.60
2022-10-03T23:23:57.147Z,11.90
2022-10-03T23:26:49.991Z,12.00
2022-10-03T23:29:20.506Z,12.60
2022-10-03T23:32:07.013Z,12.30
2022-10-03T23:35:16.451Z,12.10
2022-10-03T23:37:47.106Z,12.60
2022-10-03T23:40:36.081Z,11.80
2022-10-03T23:43:25.124Z,10.80
2022-10-03T23:45:57.105Z,11.50
2022-10-03T23:48:27.953Z,10.40
2022-10-03T23:50:59.841Z,11.10
2022-10-03T23:53:33.592Z,10.70
2022-10-03T23:56:03.357Z,11.30
2022-10-03T23:58:35.998Z,10.40
